sensor_id;sensor_type;location;lat;lon;timestamp;P1;durP1;ratioP1;P2;durP2;ratioP2
12990;SDS011;6560;57.692;11.958;2024-01-30T00:02:23;47.87;;;16.37;;
12990;SDS011;6560;57.692;11.958;2024-01-30T00:04:51;63.67;;;15.47;;
12990;SDS011;6560;57.692;11.958;2024-01-30T00:07:17;54.93;;;16.30;;
12990;SDS011;6560;57.692;11.958;2024-01-30T00:09:46;55.67;;;17.70;;
12990;SDS011;6560;57.692;11.958;2024-01-30T00:12:12;46.87;;;14.77;;
12990;SDS011;6560;57.692;11.958;2024-01-30T00:14:37;40.33;;;15.00;;
12990;SDS011;6560;57.692;11.958;2024-01-30T00:17:03;49.30;;;16.77;;
12990;SDS011;6560;57.692;11.958;2024-01-30T00:19:29;52.13;;;16.60;;
12990;SDS011;6560;57.692;11.958;2024-01-30T00:21:54;40.30;;;14.83;;
12990;SDS011;6560;57.692;11.958;2024-01-30T00:24:20;44.80;;;14.97;;
12990;SDS011;6560;57.692;11.958;2024-01-30T00:26:47;45.80;;;15.43;;
12990;SDS011;6560;57.692;11.958;2024-01-30T00:29:12;44.73;;;16.97;;
12990;SDS011;6560;57.692;11.958;2024-01-30T00:31:44;41.00;;;14.23;;
12990;SDS011;6560;57.692;11.958;2024-01-30T00:34:12;38.63;;;13.87;;
12990;SDS011;6560;57.692;11.958;2024-01-30T00:36:38;41.40;;;14.27;;
12990;SDS011;6560;57.692;11.958;2024-01-30T00:39:03;39.30;;;14.90;;
12990;SDS011;6560;57.692;11.958;2024-01-30T00:41:35;34.83;;;13.50;;
12990;SDS011;6560;57.692;11.958;2024-01-30T00:44:00;40.30;;;15.37;;
12990;SDS011;6560;57.692;11.958;2024-01-30T00:46:26;40.00;;;15.37;;
12990;SDS011;6560;57.692;11.958;2024-01-30T00:48:51;42.07;;;15.13;;
12990;SDS011;6560;57.692;11.958;2024-01-30T00:51:17;35.33;;;13.97;;
12990;SDS011;6560;57.692;11.958;2024-01-30T00:53:42;37.27;;;15.40;;
12990;SDS011;6560;57.692;11.958;2024-01-30T00:56:09;36.10;;;15.00;;
12990;SDS011;6560;57.692;11.958;2024-01-30T00:58:34;35.30;;;13.70;;
12990;SDS011;6560;57.692;11.958;2024-01-30T01:01:01;38.23;;;14.03;;
12990;SDS011;6560;57.692;11.958;2024-01-30T01:03:27;39.13;;;15.60;;
12990;SDS011;6560;57.692;11.958;2024-01-30T01:05:53;28.23;;;12.97;;
12990;SDS011;6560;57.692;11.958;2024-01-30T01:08:23;27.33;;;12.33;;
12990;SDS011;6560;57.692;11.958;2024-01-30T01:10:48;32.63;;;15.27;;
12990;SDS011;6560;57.692;11.958;2024-01-30T01:13:13;30.27;;;13.97;;
12990;SDS011;6560;57.692;11.958;2024-01-30T01:15:42;29.93;;;13.13;;
12990;SDS011;6560;57.692;11.958;2024-01-30T01:18:08;32.57;;;13.27;;
12990;SDS011;6560;57.692;11.958;2024-01-30T01:20:33;31.57;;;14.60;;
12990;SDS011;6560;57.692;11.958;2024-01-30T01:22:59;30.50;;;13.13;;
12990;SDS011;6560;57.692;11.958;2024-01-30T01:25:24;29.83;;;13.07;;
12990;SDS011;6560;57.692;11.958;2024-01-30T01:27:50;26.50;;;12.37;;
12990;SDS011;6560;57.692;11.958;2024-01-30T01:30:18;33.73;;;14.20;;
12990;SDS011;6560;57.692;11.958;2024-01-30T01:32:48;31.00;;;13.73;;
12990;SDS011;6560;57.692;11.958;2024-01-30T01:35:23;29.23;;;13.37;;
12990;SDS011;6560;57.692;11.958;2024-01-30T01:37:58;26.93;;;13.53;;
12990;SDS011;6560;57.692;11.958;2024-01-30T01:40:25;26.57;;;12.27;;
12990;SDS011;6560;57.692;11.958;2024-01-30T01:42:51;26.17;;;13.20;;
12990;SDS011;6560;57.692;11.958;2024-01-30T01:45:18;25.87;;;12.23;;
12990;SDS011;6560;57.692;11.958;2024-01-30T01:47:47;22.70;;;12.60;;
12990;SDS011;6560;57.692;11.958;2024-01-30T01:50:15;26.13;;;12.70;;
12990;SDS011;6560;57.692;11.958;2024-01-30T01:52:45;24.63;;;11.97;;
12990;SDS011;6560;57.692;11.958;2024-01-30T01:55:14;27.50;;;12.23;;
12990;SDS011;6560;57.692;11.958;2024-01-30T01:57:41;25.83;;;11.57;;
12990;SDS011;6560;57.692;11.958;2024-01-30T02:00:07;28.07;;;12.03;;
12990;SDS011;6560;57.692;11.958;2024-01-30T02:02:35;26.57;;;12.73;;
12990;SDS011;6560;57.692;11.958;2024-01-30T02:07:39;21.13;;;11.20;;
12990;SDS011;6560;57.692;11.958;2024-01-30T02:10:07;20.80;;;11.13;;
12990;SDS011;6560;57.692;11.958;2024-01-30T02:12:35;21.73;;;10.33;;
12990;SDS011;6560;57.692;11.958;2024-01-30T02:15:02;22.00;;;10.13;;
12990;SDS011;6560;57.692;11.958;2024-01-30T02:17:27;24.27;;;12.47;;
12990;SDS011;6560;57.692;11.958;2024-01-30T02:19:53;17.97;;;9.57;;
12990;SDS011;6560;57.692;11.958;2024-01-30T02:22:18;17.13;;;8.97;;
12990;SDS011;6560;57.692;11.958;2024-01-30T02:24:45;20.00;;;9.33;;
12990;SDS011;6560;57.692;11.958;2024-01-30T02:27:12;17.13;;;9.53;;
12990;SDS011;6560;57.692;11.958;2024-01-30T02:29:38;15.43;;;7.70;;
12990;SDS011;6560;57.692;11.958;2024-01-30T02:32:03;17.43;;;9.30;;
12990;SDS011;6560;57.692;11.958;2024-01-30T02:34:30;17.80;;;9.33;;
12990;SDS011;6560;57.692;11.958;2024-01-30T02:36:56;18.73;;;10.23;;
12990;SDS011;6560;57.692;11.958;2024-01-30T02:39:21;16.07;;;8.57;;
12990;SDS011;6560;57.692;11.958;2024-01-30T02:41:48;18.00;;;9.60;;
12990;SDS011;6560;57.692;11.958;2024-01-30T02:44:14;17.60;;;9.23;;
12990;SDS011;6560;57.692;11.958;2024-01-30T02:46:39;17.47;;;9.17;;
12990;SDS011;6560;57.692;11.958;2024-01-30T02:49:08;16.97;;;10.10;;
12990;SDS011;6560;57.692;11.958;2024-01-30T02:51:33;17.93;;;9.43;;
12990;SDS011;6560;57.692;11.958;2024-01-30T02:54:01;13.97;;;8.23;;
12990;SDS011;6560;57.692;11.958;2024-01-30T02:56:27;18.07;;;8.97;;
12990;SDS011;6560;57.692;11.958;2024-01-30T02:58:54;16.33;;;9.43;;
12990;SDS011;6560;57.692;11.958;2024-01-30T03:01:20;15.73;;;8.97;;
12990;SDS011;6560;57.692;11.958;2024-01-30T03:03:45;16.47;;;9.57;;
12990;SDS011;6560;57.692;11.958;2024-01-30T03:06:12;19.03;;;10.00;;
12990;SDS011;6560;57.692;11.958;2024-01-30T03:08:42;22.43;;;9.83;;
12990;SDS011;6560;57.692;11.958;2024-01-30T03:11:08;17.33;;;9.90;;
12990;SDS011;6560;57.692;11.958;2024-01-30T03:13:34;18.63;;;8.87;;
12990;SDS011;6560;57.692;11.958;2024-01-30T03:16:01;15.10;;;8.97;;
12990;SDS011;6560;57.692;11.958;2024-01-30T03:18:27;13.07;;;8.83;;
12990;SDS011;6560;57.692;11.958;2024-01-30T03:20:52;18.30;;;9.57;;
12990;SDS011;6560;57.692;11.958;2024-01-30T03:23:19;17.23;;;9.60;;
12990;SDS011;6560;57.692;11.958;2024-01-30T03:25:45;15.27;;;8.80;;
12990;SDS011;6560;57.692;11.958;2024-01-30T03:28:10;14.97;;;9.07;;
12990;SDS011;6560;57.692;11.958;2024-01-30T03:30:36;15.90;;;9.70;;
12990;SDS011;6560;57.692;11.958;2024-01-30T03:33:02;14.97;;;9.07;;
12990;SDS011;6560;57.692;11.958;2024-01-30T03:35:27;15.23;;;8.10;;
12990;SDS011;6560;57.692;11.958;2024-01-30T03:37:53;15.33;;;9.00;;
12990;SDS011;6560;57.692;11.958;2024-01-30T03:40:19;14.83;;;8.77;;
12990;SDS011;6560;57.692;11.958;2024-01-30T03:42:46;14.93;;;8.30;;
12990;SDS011;6560;57.692;11.958;2024-01-30T03:45:12;13.67;;;8.33;;
12990;SDS011;6560;57.692;11.958;2024-01-30T03:47:38;14.67;;;8.33;;
12990;SDS011;6560;57.692;11.958;2024-01-30T03:50:03;15.47;;;8.60;;
12990;SDS011;6560;57.692;11.958;2024-01-30T03:52:30;13.47;;;8.27;;
12990;SDS011;6560;57.692;11.958;2024-01-30T03:54:55;14.20;;;8.77;;
12990;SDS011;6560;57.692;11.958;2024-01-30T03:57:22;15.50;;;9.33;;
12990;SDS011;6560;57.692;11.958;2024-01-30T03:59:47;13.13;;;8.80;;
12990;SDS011;6560;57.692;11.958;2024-01-30T04:02:12;14.60;;;8.23;;
12990;SDS011;6560;57.692;11.958;2024-01-30T04:04:41;13.60;;;8.90;;
12990;SDS011;6560;57.692;11.958;2024-01-30T04:07:06;12.87;;;8.17;;
12990;SDS011;6560;57.692;11.958;2024-01-30T04:09:32;14.73;;;8.97;;
12990;SDS011;6560;57.692;11.958;2024-01-30T04:11:57;16.07;;;9.13;;
12990;SDS011;6560;57.692;11.958;2024-01-30T04:14:23;14.13;;;8.83;;
12990;SDS011;6560;57.692;11.958;2024-01-30T04:16:50;13.00;;;8.37;;
12990;SDS011;6560;57.692;11.958;2024-01-30T04:19:17;14.83;;;8.30;;
12990;SDS011;6560;57.692;11.958;2024-01-30T04:21:43;14.87;;;8.83;;
12990;SDS011;6560;57.692;11.958;2024-01-30T04:24:10;14.07;;;9.07;;
12990;SDS011;6560;57.692;11.958;2024-01-30T04:26:35;14.40;;;8.83;;
12990;SDS011;6560;57.692;11.958;2024-01-30T04:29:02;14.83;;;8.30;;
12990;SDS011;6560;57.692;11.958;2024-01-30T04:31:28;15.53;;;9.77;;
12990;SDS011;6560;57.692;11.958;2024-01-30T04:33:53;14.90;;;8.87;;
12990;SDS011;6560;57.692;11.958;2024-01-30T04:36:19;14.40;;;8.77;;
12990;SDS011;6560;57.692;11.958;2024-01-30T04:38:45;15.93;;;9.10;;
12990;SDS011;6560;57.692;11.958;2024-01-30T04:41:11;13.67;;;9.37;;
12990;SDS011;6560;57.692;11.958;2024-01-30T04:43:38;17.33;;;9.30;;
12990;SDS011;6560;57.692;11.958;2024-01-30T04:46:04;15.37;;;9.63;;
12990;SDS011;6560;57.692;11.958;2024-01-30T04:48:30;18.43;;;9.43;;
12990;SDS011;6560;57.692;11.958;2024-01-30T04:50:55;13.53;;;7.57;;
12990;SDS011;6560;57.692;11.958;2024-01-30T04:53:21;15.93;;;9.30;;
12990;SDS011;6560;57.692;11.958;2024-01-30T04:55:48;15.80;;;8.97;;
12990;SDS011;6560;57.692;11.958;2024-01-30T04:58:13;20.30;;;10.07;;
12990;SDS011;6560;57.692;11.958;2024-01-30T05:00:40;16.90;;;9.37;;
12990;SDS011;6560;57.692;11.958;2024-01-30T05:03:05;17.17;;;9.37;;
12990;SDS011;6560;57.692;11.958;2024-01-30T05:05:31;17.80;;;9.20;;
12990;SDS011;6560;57.692;11.958;2024-01-30T05:07:56;19.13;;;9.23;;
12990;SDS011;6560;57.692;11.958;2024-01-30T05:10:21;17.33;;;9.07;;
12990;SDS011;6560;57.692;11.958;2024-01-30T05:12:48;17.73;;;9.23;;
12990;SDS011;6560;57.692;11.958;2024-01-30T05:15:15;14.27;;;7.87;;
12990;SDS011;6560;57.692;11.958;2024-01-30T05:17:42;13.50;;;7.60;;
12990;SDS011;6560;57.692;11.958;2024-01-30T05:20:07;15.23;;;8.00;;
12990;SDS011;6560;57.692;11.958;2024-01-30T05:22:34;14.10;;;7.33;;
12990;SDS011;6560;57.692;11.958;2024-01-30T05:24:59;18.07;;;7.70;;
12990;SDS011;6560;57.692;11.958;2024-01-30T05:27:26;14.37;;;8.33;;
12990;SDS011;6560;57.692;11.958;2024-01-30T05:29:52;12.97;;;7.10;;
12990;SDS011;6560;57.692;11.958;2024-01-30T05:32:18;14.53;;;8.20;;
12990;SDS011;6560;57.692;11.958;2024-01-30T05:34:46;19.00;;;8.13;;
12990;SDS011;6560;57.692;11.958;2024-01-30T05:37:11;15.17;;;7.97;;
12990;SDS011;6560;57.692;11.958;2024-01-30T05:39:39;12.03;;;6.87;;
12990;SDS011;6560;57.692;11.958;2024-01-30T05:42:05;12.93;;;7.27;;
12990;SDS011;6560;57.692;11.958;2024-01-30T05:44:31;14.20;;;7.47;;
12990;SDS011;6560;57.692;11.958;2024-01-30T05:46:56;15.53;;;8.00;;
12990;SDS011;6560;57.692;11.958;2024-01-30T05:49:25;12.70;;;7.75;;
12990;SDS011;6560;57.692;11.958;2024-01-30T05:51:50;13.37;;;7.53;;
12990;SDS011;6560;57.692;11.958;2024-01-30T05:54:16;16.80;;;7.93;;
12990;SDS011;6560;57.692;11.958;2024-01-30T05:56:43;14.60;;;7.97;;
12990;SDS011;6560;57.692;11.958;2024-01-30T05:59:08;14.00;;;8.33;;
12990;SDS011;6560;57.692;11.958;2024-01-30T06:01:34;16.80;;;8.40;;
12990;SDS011;6560;57.692;11.958;2024-01-30T06:04:00;15.80;;;8.70;;
12990;SDS011;6560;57.692;11.958;2024-01-30T06:06:26;12.23;;;7.80;;
12990;SDS011;6560;57.692;11.958;2024-01-30T06:08:52;20.63;;;9.17;;
12990;SDS011;6560;57.692;11.958;2024-01-30T06:11:21;15.23;;;7.97;;
12990;SDS011;6560;57.692;11.958;2024-01-30T06:13:46;17.93;;;8.43;;
12990;SDS011;6560;57.692;11.958;2024-01-30T06:16:12;16.17;;;8.03;;
12990;SDS011;6560;57.692;11.958;2024-01-30T06:18:40;18.77;;;9.20;;
12990;SDS011;6560;57.692;11.958;2024-01-30T06:21:05;16.43;;;7.93;;
12990;SDS011;6560;57.692;11.958;2024-01-30T06:23:31;15.83;;;8.63;;
12990;SDS011;6560;57.692;11.958;2024-01-30T06:25:57;22.43;;;9.43;;
12990;SDS011;6560;57.692;11.958;2024-01-30T06:28:22;20.80;;;9.53;;
12990;SDS011;6560;57.692;11.958;2024-01-30T06:30:47;18.73;;;8.33;;
12990;SDS011;6560;57.692;11.958;2024-01-30T06:33:14;19.10;;;8.53;;
12990;SDS011;6560;57.692;11.958;2024-01-30T06:35:40;24.60;;;10.13;;
12990;SDS011;6560;57.692;11.958;2024-01-30T06:38:06;20.20;;;9.13;;
12990;SDS011;6560;57.692;11.958;2024-01-30T06:40:35;27.03;;;10.13;;
12990;SDS011;6560;57.692;11.958;2024-01-30T06:43:00;27.23;;;9.47;;
12990;SDS011;6560;57.692;11.958;2024-01-30T06:45:26;23.07;;;9.33;;
12990;SDS011;6560;57.692;11.958;2024-01-30T06:47:51;30.43;;;11.43;;
12990;SDS011;6560;57.692;11.958;2024-01-30T06:50:17;23.10;;;8.83;;
12990;SDS011;6560;57.692;11.958;2024-01-30T06:52:43;27.30;;;10.67;;
12990;SDS011;6560;57.692;11.958;2024-01-30T06:55:10;25.87;;;9.57;;
12990;SDS011;6560;57.692;11.958;2024-01-30T06:57:36;26.37;;;10.07;;
12990;SDS011;6560;57.692;11.958;2024-01-30T07:00:03;25.43;;;10.33;;
12990;SDS011;6560;57.692;11.958;2024-01-30T07:02:29;21.63;;;9.57;;
12990;SDS011;6560;57.692;11.958;2024-01-30T07:04:55;24.97;;;9.50;;
12990;SDS011;6560;57.692;11.958;2024-01-30T07:07:22;24.70;;;11.70;;
12990;SDS011;6560;57.692;11.958;2024-01-30T07:09:48;22.33;;;9.27;;
12990;SDS011;6560;57.692;11.958;2024-01-30T07:12:16;23.33;;;9.43;;
12990;SDS011;6560;57.692;11.958;2024-01-30T07:14:41;24.90;;;10.00;;
12990;SDS011;6560;57.692;11.958;2024-01-30T07:17:07;22.73;;;10.30;;
12990;SDS011;6560;57.692;11.958;2024-01-30T07:19:32;16.40;;;8.33;;
12990;SDS011;6560;57.692;11.958;2024-01-30T07:22:00;23.83;;;10.37;;
12990;SDS011;6560;57.692;11.958;2024-01-30T07:24:27;24.40;;;9.93;;
12990;SDS011;6560;57.692;11.958;2024-01-30T07:26:53;20.20;;;9.20;;
12990;SDS011;6560;57.692;11.958;2024-01-30T07:29:18;18.73;;;9.40;;
12990;SDS011;6560;57.692;11.958;2024-01-30T07:31:45;19.73;;;8.97;;
12990;SDS011;6560;57.692;11.958;2024-01-30T07:34:11;23.33;;;8.27;;
12990;SDS011;6560;57.692;11.958;2024-01-30T07:36:37;16.57;;;8.17;;
12990;SDS011;6560;57.692;11.958;2024-01-30T07:39:03;21.17;;;8.57;;
12990;SDS011;6560;57.692;11.958;2024-01-30T07:41:29;27.23;;;10.67;;
12990;SDS011;6560;57.692;11.958;2024-01-30T07:43:55;22.03;;;9.40;;
12990;SDS011;6560;57.692;11.958;2024-01-30T07:46:20;20.10;;;8.63;;
12990;SDS011;6560;57.692;11.958;2024-01-30T07:48:46;18.43;;;10.07;;
12990;SDS011;6560;57.692;11.958;2024-01-30T07:51:11;18.33;;;8.57;;
12990;SDS011;6560;57.692;11.958;2024-01-30T07:53:37;16.73;;;9.37;;
12990;SDS011;6560;57.692;11.958;2024-01-30T07:56:05;23.73;;;10.53;;
12990;SDS011;6560;57.692;11.958;2024-01-30T07:58:30;17.50;;;8.77;;
12990;SDS011;6560;57.692;11.958;2024-01-30T08:00:57;16.37;;;9.27;;
12990;SDS011;6560;57.692;11.958;2024-01-30T08:03:28;33.47;;;9.90;;
12990;SDS011;6560;57.692;11.958;2024-01-30T08:05:56;20.80;;;9.13;;
12990;SDS011;6560;57.692;11.958;2024-01-30T08:08:22;19.67;;;8.83;;
12990;SDS011;6560;57.692;11.958;2024-01-30T08:10:48;15.03;;;7.70;;
12990;SDS011;6560;57.692;11.958;2024-01-30T08:13:15;23.77;;;8.67;;
12990;SDS011;6560;57.692;11.958;2024-01-30T08:15:40;14.77;;;7.57;;
12990;SDS011;6560;57.692;11.958;2024-01-30T08:18:06;15.90;;;7.70;;
12990;SDS011;6560;57.692;11.958;2024-01-30T08:20:32;15.83;;;7.33;;
12990;SDS011;6560;57.692;11.958;2024-01-30T08:22:58;13.40;;;7.53;;
12990;SDS011;6560;57.692;11.958;2024-01-30T08:25:25;12.37;;;6.53;;
12990;SDS011;6560;57.692;11.958;2024-01-30T08:27:50;18.47;;;8.67;;
12990;SDS011;6560;57.692;11.958;2024-01-30T08:30:16;17.70;;;7.43;;
12990;SDS011;6560;57.692;11.958;2024-01-30T08:32:43;18.50;;;9.40;;
12990;SDS011;6560;57.692;11.958;2024-01-30T08:35:08;20.47;;;9.63;;
12990;SDS011;6560;57.692;11.958;2024-01-30T08:37:34;13.73;;;7.77;;
12990;SDS011;6560;57.692;11.958;2024-01-30T08:40:00;18.60;;;7.93;;
12990;SDS011;6560;57.692;11.958;2024-01-30T08:42:27;21.97;;;9.83;;
12990;SDS011;6560;57.692;11.958;2024-01-30T08:44:52;19.23;;;8.47;;
12990;SDS011;6560;57.692;11.958;2024-01-30T08:47:19;13.43;;;7.57;;
12990;SDS011;6560;57.692;11.958;2024-01-30T08:49:44;15.20;;;7.47;;
12990;SDS011;6560;57.692;11.958;2024-01-30T08:52:10;21.83;;;8.40;;
12990;SDS011;6560;57.692;11.958;2024-01-30T08:54:36;16.07;;;7.57;;
12990;SDS011;6560;57.692;11.958;2024-01-30T08:57:02;18.27;;;8.53;;
12990;SDS011;6560;57.692;11.958;2024-01-30T08:59:30;17.03;;;8.33;;
12990;SDS011;6560;57.692;11.958;2024-01-30T09:01:56;13.63;;;7.17;;
12990;SDS011;6560;57.692;11.958;2024-01-30T09:04:24;16.63;;;7.67;;
12990;SDS011;6560;57.692;11.958;2024-01-30T09:06:50;17.10;;;7.93;;
12990;SDS011;6560;57.692;11.958;2024-01-30T09:09:15;13.07;;;7.23;;
12990;SDS011;6560;57.692;11.958;2024-01-30T09:11:44;10.40;;;7.40;;
12990;SDS011;6560;57.692;11.958;2024-01-30T09:14:11;14.70;;;7.97;;
12990;SDS011;6560;57.692;11.958;2024-01-30T09:16:37;16.50;;;8.17;;
12990;SDS011;6560;57.692;11.958;2024-01-30T09:19:04;14.30;;;7.43;;
12990;SDS011;6560;57.692;11.958;2024-01-30T09:21:30;13.83;;;8.27;;
12990;SDS011;6560;57.692;11.958;2024-01-30T09:24:02;16.57;;;9.03;;
12990;SDS011;6560;57.692;11.958;2024-01-30T09:26:32;16.23;;;10.17;;
12990;SDS011;6560;57.692;11.958;2024-01-30T09:28:58;20.03;;;9.77;;
12990;SDS011;6560;57.692;11.958;2024-01-30T09:31:23;16.77;;;9.67;;
12990;SDS011;6560;57.692;11.958;2024-01-30T09:33:49;19.43;;;9.97;;
12990;SDS011;6560;57.692;11.958;2024-01-30T09:36:16;23.97;;;10.73;;
12990;SDS011;6560;57.692;11.958;2024-01-30T09:38:43;20.27;;;9.73;;
12990;SDS011;6560;57.692;11.958;2024-01-30T09:41:09;17.40;;;9.83;;
12990;SDS011;6560;57.692;11.958;2024-01-30T09:43:36;22.37;;;10.57;;
12990;SDS011;6560;57.692;11.958;2024-01-30T09:46:03;21.63;;;10.70;;
12990;SDS011;6560;57.692;11.958;2024-01-30T09:48:37;18.87;;;9.97;;
12990;SDS011;6560;57.692;11.958;2024-01-30T09:51:03;17.80;;;10.07;;
12990;SDS011;6560;57.692;11.958;2024-01-30T09:53:30;16.33;;;8.93;;
12990;SDS011;6560;57.692;11.958;2024-01-30T09:55:57;19.50;;;9.77;;
12990;SDS011;6560;57.692;11.958;2024-01-30T09:58:23;19.67;;;9.97;;
12990;SDS011;6560;57.692;11.958;2024-01-30T10:00:48;18.13;;;9.87;;
12990;SDS011;6560;57.692;11.958;2024-01-30T10:03:14;18.90;;;9.77;;
12990;SDS011;6560;57.692;11.958;2024-01-30T10:05:40;17.07;;;9.33;;
12990;SDS011;6560;57.692;11.958;2024-01-30T10:08:06;18.73;;;9.87;;
12990;SDS011;6560;57.692;11.958;2024-01-30T10:10:36;16.73;;;8.93;;
12990;SDS011;6560;57.692;11.958;2024-01-30T10:13:02;17.07;;;8.97;;
12990;SDS011;6560;57.692;11.958;2024-01-30T10:15:28;15.53;;;8.40;;
12990;SDS011;6560;57.692;11.958;2024-01-30T10:17:55;17.67;;;8.23;;
12990;SDS011;6560;57.692;11.958;2024-01-30T10:20:21;16.07;;;7.80;;
12990;SDS011;6560;57.692;11.958;2024-01-30T10:22:47;12.87;;;7.37;;
12990;SDS011;6560;57.692;11.958;2024-01-30T10:25:14;13.63;;;7.27;;
12990;SDS011;6560;57.692;11.958;2024-01-30T10:27:40;14.07;;;7.00;;
12990;SDS011;6560;57.692;11.958;2024-01-30T10:30:06;14.67;;;8.97;;
12990;SDS011;6560;57.692;11.958;2024-01-30T10:32:33;17.43;;;8.77;;
12990;SDS011;6560;57.692;11.958;2024-01-30T10:34:58;15.77;;;8.77;;
12990;SDS011;6560;57.692;11.958;2024-01-30T10:37:25;14.97;;;8.83;;
12990;SDS011;6560;57.692;11.958;2024-01-30T10:39:53;14.60;;;8.07;;
12990;SDS011;6560;57.692;11.958;2024-01-30T10:42:21;16.83;;;7.87;;
12990;SDS011;6560;57.692;11.958;2024-01-30T10:45:07;12.73;;;7.00;;
12990;SDS011;6560;57.692;11.958;2024-01-30T10:47:34;12.80;;;6.53;;
12990;SDS011;6560;57.692;11.958;2024-01-30T10:50:04;13.17;;;7.43;;
12990;SDS011;6560;57.692;11.958;2024-01-30T10:52:30;14.00;;;8.10;;
12990;SDS011;6560;57.692;11.958;2024-01-30T10:54:57;12.97;;;7.33;;
12990;SDS011;6560;57.692;11.958;2024-01-30T10:57:27;11.83;;;7.17;;
12990;SDS011;6560;57.692;11.958;2024-01-30T10:59:53;15.83;;;7.00;;
12990;SDS011;6560;57.692;11.958;2024-01-30T11:02:22;12.03;;;7.00;;
12990;SDS011;6560;57.692;11.958;2024-01-30T11:04:49;12.90;;;7.30;;
12990;SDS011;6560;57.692;11.958;2024-01-30T11:07:16;15.37;;;8.37;;
12990;SDS011;6560;57.692;11.958;2024-01-30T11:09:54;18.57;;;8.47;;
12990;SDS011;6560;57.692;11.958;2024-01-30T11:12:29;15.10;;;7.57;;
12990;SDS011;6560;57.692;11.958;2024-01-30T11:15:08;19.20;;;8.73;;
12990;SDS011;6560;57.692;11.958;2024-01-30T11:17:49;19.43;;;8.17;;
12990;SDS011;6560;57.692;11.958;2024-01-30T11:20:25;25.47;;;9.03;;
12990;SDS011;6560;57.692;11.958;2024-01-30T11:22:52;25.90;;;9.53;;
12990;SDS011;6560;57.692;11.958;2024-01-30T11:25:20;20.60;;;10.13;;
12990;SDS011;6560;57.692;11.958;2024-01-30T11:27:53;31.57;;;11.47;;
12990;SDS011;6560;57.692;11.958;2024-01-30T11:30:23;16.47;;;6.83;;
12990;SDS011;6560;57.692;11.958;2024-01-30T11:33:03;23.33;;;9.07;;
12990;SDS011;6560;57.692;11.958;2024-01-30T11:35:37;24.17;;;8.57;;
12990;SDS011;6560;57.692;11.958;2024-01-30T11:38:06;29.77;;;8.63;;
12990;SDS011;6560;57.692;11.958;2024-01-30T11:40:34;18.53;;;9.07;;
12990;SDS011;6560;57.692;11.958;2024-01-30T11:43:01;18.37;;;8.47;;
12990;SDS011;6560;57.692;11.958;2024-01-30T11:45:29;18.73;;;9.17;;
12990;SDS011;6560;57.692;11.958;2024-01-30T11:47:56;15.87;;;8.40;;
12990;SDS011;6560;57.692;11.958;2024-01-30T11:50:43;25.73;;;10.30;;
12990;SDS011;6560;57.692;11.958;2024-01-30T11:53:09;23.47;;;9.23;;
12990;SDS011;6560;57.692;11.958;2024-01-30T11:55:37;20.80;;;9.23;;
12990;SDS011;6560;57.692;11.958;2024-01-30T11:58:03;22.20;;;9.47;;
12990;SDS011;6560;57.692;11.958;2024-01-30T12:00:30;25.83;;;9.40;;
12990;SDS011;6560;57.692;11.958;2024-01-30T12:02:58;20.53;;;9.93;;
12990;SDS011;6560;57.692;11.958;2024-01-30T12:05:25;23.70;;;9.80;;
12990;SDS011;6560;57.692;11.958;2024-01-30T12:07:53;24.93;;;10.20;;
12990;SDS011;6560;57.692;11.958;2024-01-30T12:10:20;19.27;;;9.70;;
12990;SDS011;6560;57.692;11.958;2024-01-30T12:12:47;17.53;;;6.47;;
12990;SDS011;6560;57.692;11.958;2024-01-30T12:15:14;26.10;;;12.13;;
12990;SDS011;6560;57.692;11.958;2024-01-30T12:17:41;23.33;;;10.57;;
12990;SDS011;6560;57.692;11.958;2024-01-30T12:20:07;23.93;;;11.07;;
12990;SDS011;6560;57.692;11.958;2024-01-30T12:22:44;24.10;;;11.53;;
12990;SDS011;6560;57.692;11.958;2024-01-30T12:25:15;33.10;;;12.93;;
12990;SDS011;6560;57.692;11.958;2024-01-30T12:27:42;24.67;;;11.27;;
12990;SDS011;6560;57.692;11.958;2024-01-30T12:30:10;34.37;;;14.60;;
12990;SDS011;6560;57.692;11.958;2024-01-30T12:32:45;40.33;;;14.67;;
12990;SDS011;6560;57.692;11.958;2024-01-30T12:35:11;44.43;;;13.50;;
12990;SDS011;6560;57.692;11.958;2024-01-30T12:37:38;38.30;;;12.77;;
12990;SDS011;6560;57.692;11.958;2024-01-30T12:40:05;40.53;;;11.93;;
12990;SDS011;6560;57.692;11.958;2024-01-30T12:42:35;41.63;;;12.03;;
12990;SDS011;6560;57.692;11.958;2024-01-30T12:45:04;63.20;;;17.27;;
12990;SDS011;6560;57.692;11.958;2024-01-30T12:47:30;38.73;;;12.30;;
12990;SDS011;6560;57.692;11.958;2024-01-30T12:49:56;36.03;;;11.40;;
12990;SDS011;6560;57.692;11.958;2024-01-30T12:52:23;37.30;;;11.83;;
12990;SDS011;6560;57.692;11.958;2024-01-30T12:54:50;31.40;;;11.13;;
12990;SDS011;6560;57.692;11.958;2024-01-30T12:57:16;29.20;;;10.93;;
12990;SDS011;6560;57.692;11.958;2024-01-30T12:59:43;30.40;;;11.87;;
12990;SDS011;6560;57.692;11.958;2024-01-30T13:02:12;32.20;;;11.57;;
12990;SDS011;6560;57.692;11.958;2024-01-30T13:04:38;24.70;;;12.50;;
12990;SDS011;6560;57.692;11.958;2024-01-30T13:07:05;28.93;;;11.90;;
12990;SDS011;6560;57.692;11.958;2024-01-30T13:09:31;26.30;;;11.07;;
12990;SDS011;6560;57.692;11.958;2024-01-30T13:11:57;25.13;;;12.97;;
12990;SDS011;6560;57.692;11.958;2024-01-30T13:14:23;28.07;;;11.40;;
12990;SDS011;6560;57.692;11.958;2024-01-30T13:16:50;39.67;;;13.00;;
12990;SDS011;6560;57.692;11.958;2024-01-30T13:19:15;28.87;;;13.50;;
12990;SDS011;6560;57.692;11.958;2024-01-30T13:21:41;32.87;;;14.90;;
12990;SDS011;6560;57.692;11.958;2024-01-30T13:24:07;27.70;;;13.30;;
12990;SDS011;6560;57.692;11.958;2024-01-30T13:26:35;28.27;;;13.70;;
12990;SDS011;6560;57.692;11.958;2024-01-30T13:29:01;26.50;;;12.50;;
12990;SDS011;6560;57.692;11.958;2024-01-30T13:31:27;23.13;;;12.63;;
12990;SDS011;6560;57.692;11.958;2024-01-30T13:33:53;29.67;;;13.53;;
12990;SDS011;6560;57.692;11.958;2024-01-30T13:36:21;30.37;;;12.80;;
12990;SDS011;6560;57.692;11.958;2024-01-30T13:38:47;28.00;;;12.87;;
12990;SDS011;6560;57.692;11.958;2024-01-30T13:41:15;24.27;;;14.17;;
12990;SDS011;6560;57.692;11.958;2024-01-30T13:43:43;29.43;;;13.73;;
12990;SDS011;6560;57.692;11.958;2024-01-30T13:46:10;24.33;;;13.13;;
12990;SDS011;6560;57.692;11.958;2024-01-30T13:48:35;21.97;;;12.17;;
12990;SDS011;6560;57.692;11.958;2024-01-30T13:51:01;21.27;;;13.23;;
12990;SDS011;6560;57.692;11.958;2024-01-30T13:53:26;23.77;;;14.67;;
12990;SDS011;6560;57.692;11.958;2024-01-30T13:55:52;23.03;;;13.27;;
12990;SDS011;6560;57.692;11.958;2024-01-30T13:58:19;26.07;;;15.83;;
12990;SDS011;6560;57.692;11.958;2024-01-30T14:00:44;19.73;;;12.23;;
12990;SDS011;6560;57.692;11.958;2024-01-30T14:03:10;27.07;;;13.63;;
12990;SDS011;6560;57.692;11.958;2024-01-30T14:05:36;23.80;;;13.80;;
12990;SDS011;6560;57.692;11.958;2024-01-30T14:08:03;15.43;;;10.40;;
12990;SDS011;6560;57.692;11.958;2024-01-30T14:10:29;22.50;;;11.70;;
12990;SDS011;6560;57.692;11.958;2024-01-30T14:12:54;21.83;;;13.53;;
12990;SDS011;6560;57.692;11.958;2024-01-30T14:15:20;23.33;;;13.00;;
12990;SDS011;6560;57.692;11.958;2024-01-30T14:17:47;21.40;;;12.70;;
12990;SDS011;6560;57.692;11.958;2024-01-30T14:20:14;23.73;;;12.70;;
12990;SDS011;6560;57.692;11.958;2024-01-30T14:22:43;18.10;;;11.67;;
12990;SDS011;6560;57.692;11.958;2024-01-30T14:25:10;22.63;;;13.00;;
12990;SDS011;6560;57.692;11.958;2024-01-30T14:27:36;22.57;;;12.23;;
12990;SDS011;6560;57.692;11.958;2024-01-30T14:30:01;23.47;;;11.70;;